Time;durP1;ratioP1;P1;durP2;ratioP2;P2;SDS_P1;SDS_P2;PMS_P1;PMS_P2;Temp;Humidity;BMP_temperature;BMP_pressure;BME280_temperature;BME280_humidity;BME280_pressure;Samples;Min_cycle;Max_cycle;Signal;HPM_P1;HPM_P2
2023/12/04 00:00:01;;;;;;;;;;;;;;;9.48;69.86;99988.88;5052986;28;19913;-78
2023/12/04 00:02:26;;;;;;;;;;;;;;;9.47;70.31;99997.75;5053117;28;19919;-77
2023/12/04 00:04:51;;;;;;;;;;;;;;;9.47;70.18;100010.94;5052588;28;19913;-76
2023/12/04 00:07:17;;;;;;;;;;;;;;;9.48;70.70;100026.59;5052470;28;19921;-77
2023/12/04 00:09:42;;;;;;;;;;;;;;;9.50;70.19;100023.78;5052555;28;19935;-76
2023/12/04 00:12:07;;;;;;;;;;;;;;;9.51;70.17;100007.81;5052647;28;20413;-77
2023/12/04 00:14:33;;;;;;;;;;;;;;;9.53;70.51;99999.75;5052586;28;19920;-77
2023/12/04 00:16:58;;;;;;;;;;;;;;;9.53;70.08;99984.75;5052941;28;19917;-76
2023/12/04 00:19:23;;;;;;;;;;;;;;;9.52;70.28;99977.03;5052690;28;19921;-77
2023/12/04 00:21:49;;;;;;;;;;;;;;;9.41;70.66;99991.31;5051203;28;19909;-77
2023/12/04 00:24:14;;;;;;;;;;;;;;;9.37;70.80;100011.06;5051859;28;19913;-77
2023/12/04 00:26:40;;;;;;;;;;;;;;;9.31;70.87;100011.69;5052293;28;19913;-76
2023/12/04 00:29:06;;;;;;;;;;;;;;;9.34;70.89;100016.66;5052110;28;19913;-76
2023/12/04 00:31:31;;;;;;;;;;;;;;;9.39;70.64;100032.00;5051972;28;19924;-76
2023/12/04 00:33:57;;;;;;;;;;;;;;;9.42;71.03;100043.03;5052528;28;19912;-76
2023/12/04 00:36:22;;;;;;;;;;;;;;;9.43;71.21;100033.31;5052244;28;20390;-76
2023/12/04 00:38:47;;;;;;;;;;;;;;;9.43;70.73;100049.97;5052210;28;19913;-77
2023/12/04 00:41:13;;;;;;;;;;;;;;;9.38;70.32;100060.16;5052183;28;19981;-76
2023/12/04 00:43:38;;;;;;;;;;;;;;;9.32;70.98;100055.50;5051824;28;20011;-77
2023/12/04 00:46:03;;;;;;;;;;;;;;;9.32;70.69;100052.88;5051893;28;19912;-76
2023/12/04 00:48:29;;;;;;;;;;;;;;;9.32;71.20;100059.97;5052049;28;19920;-77
2023/12/04 00:50:54;;;;;;;;;;;;;;;9.33;70.71;100067.72;5051990;28;19920;-76
2023/12/04 00:53:19;;;;;;;;;;;;;;;9.29;70.58;100061.09;5051920;28;19923;-77
2023/12/04 00:55:45;;;;;;;;;;;;;;;9.29;70.56;100076.91;5051821;28;19920;-76
2023/12/04 00:58:10;;;;;;;;;;;;;;;9.21;70.83;100071.59;5051863;28;19920;-77
2023/12/04 01:00:38;;;;;;;;;;;;;;;9.20;70.93;100060.22;5051798;28;20309;-76
2023/12/04 01:03:03;;;;;;;;;;;;;;;9.22;70.64;100060.06;5051710;28;19913;-77
2023/12/04 01:05:29;;;;;;;;;;;;;;;9.12;71.07;100068.09;5051535;28;19921;-77
2023/12/04 01:07:54;;;;;;;;;;;;;;;9.08;70.94;100074.66;5051703;28;19952;-76
2023/12/04 01:10:20;;;;;;;;;;;;;;;9.04;70.60;100068.03;5051645;28;19913;-77
2023/12/04 01:12:45;;;;;;;;;;;;;;;9.05;71.18;100074.13;5051827;28;19917;-76
2023/12/04 01:15:10;;;;;;;;;;;;;;;9.04;71.38;100073.31;5051742;28;20394;-77
2023/12/04 01:17:36;;;;;;;;;;;;;;;9.06;70.63;100088.97;5051642;28;20449;-77
2023/12/04 01:20:01;;;;;;;;;;;;;;;9.05;70.96;100118.91;5051473;28;19999;-77
2023/12/04 01:22:26;;;;;;;;;;;;;;;9.06;70.21;100120.56;5051522;28;19920;-76
2023/12/04 01:24:51;;;;;;;;;;;;;;;9.02;70.34;100103.41;5051617;28;19913;-77
2023/12/04 01:27:17;;;;;;;;;;;;;;;9.03;70.46;100084.00;5051519;28;19916;-76
2023/12/04 01:29:42;;;;;;;;;;;;;;;9.04;70.46;100093.56;5051545;28;19919;-77
2023/12/04 01:32:07;;;;;;;;;;;;;;;9.03;70.62;100089.28;5051510;28;20302;-76
2023/12/04 01:34:33;;;;;;;;;;;;;;;9.00;70.47;100085.13;5053062;28;19913;-77
2023/12/04 01:36:58;;;;;;;;;;;;;;;8.93;70.54;100088.53;5055886;28;20408;-77
2023/12/04 01:39:23;;;;;;;;;;;;;;;8.86;70.24;100091.75;5055741;28;19913;-76
2023/12/04 01:41:49;;;;;;;;;;;;;;;8.87;70.25;100100.47;5056122;28;19913;-76
2023/12/04 01:44:14;;;;;;;;;;;;;;;8.79;70.11;100093.34;5054115;28;20393;-77
2023/12/04 01:46:40;;;;;;;;;;;;;;;8.76;70.50;100091.03;5055158;28;19913;-77
2023/12/04 01:49:05;;;;;;;;;;;;;;;8.66;71.07;100079.75;5055249;28;19920;-77
2023/12/04 01:51:31;;;;;;;;;;;;;;;8.68;70.51;100085.69;5055141;28;19971;-77
2023/12/04 01:53:59;;;;;;;;;;;;;;;8.70;70.25;100099.53;5055209;28;19912;-77
2023/12/04 01:56:24;;;;;;;;;;;;;;;8.72;70.27;100096.75;5053840;28;20318;-76
2023/12/04 01:58:50;;;;;;;;;;;;;;;8.73;70.31;100088.69;5055213;28;19913;-77
2023/12/04 02:01:15;;;;;;;;;;;;;;;8.67;69.94;100091.13;5055165;28;19919;-77
2023/12/04 02:03:41;;;;;;;;;;;;;;;8.56;70.57;100111.44;5055015;28;20010;-77
2023/12/04 02:06:07;;;;;;;;;;;;;;;8.57;70.32;100123.59;5054753;28;19920;-77
2023/12/04 02:08:32;;;;;;;;;;;;;;;8.59;70.46;100134.00;5054983;28;19920;-77
2023/12/04 02:10:58;;;;;;;;;;;;;;;8.58;70.36;100129.69;5055054;28;19912;-77
2023/12/04 02:13:24;;;;;;;;;;;;;;;8.58;70.25;100120.00;5055257;28;19917;-77
2023/12/04 02:15:52;;;;;;;;;;;;;;;8.50;69.77;100133.09;5055048;28;19919;-77
2023/12/04 02:18:17;;;;;;;;;;;;;;;8.32;69.98;100144.53;5055001;28;19913;-77
2023/12/04 02:20:43;;;;;;;;;;;;;;;8.21;70.33;100128.00;5054986;28;20005;-76
2023/12/04 02:23:08;;;;;;;;;;;;;;;8.14;70.03;100119.03;5054896;28;19960;-77
2023/12/04 02:25:33;;;;;;;;;;;;;;;8.21;70.03;100125.38;5054607;28;19959;-77
2023/12/04 02:28:01;;;;;;;;;;;;;;;8.23;69.84;100122.59;5054623;28;20390;-77
2023/12/04 02:30:28;;;;;;;;;;;;;;;8.25;69.76;100133.78;5054551;28;19913;-77
2023/12/04 02:32:54;;;;;;;;;;;;;;;8.23;69.87;100136.56;5054536;28;19928;-76
2023/12/04 02:35:21;;;;;;;;;;;;;;;8.23;69.65;100157.63;5054600;28;19913;-77
2023/12/04 02:37:47;;;;;;;;;;;;;;;8.22;69.65;100140.19;5054256;28;20386;-77
2023/12/04 02:40:13;;;;;;;;;;;;;;;8.21;69.62;100129.81;5054211;28;19982;-75
2023/12/04 02:42:39;;;;;;;;;;;;;;;8.16;69.26;100129.38;5054152;28;19913;-76
2023/12/04 02:45:04;;;;;;;;;;;;;;;8.13;69.31;100137.56;5052996;28;20317;-77
2023/12/04 02:47:30;;;;;;;;;;;;;;;8.21;69.51;100150.84;5053472;28;19919;-77
2023/12/04 02:49:55;;;;;;;;;;;;;;;8.23;69.62;100143.63;5054196;28;20058;-77
2023/12/04 02:52:20;;;;;;;;;;;;;;;8.26;69.79;100152.06;5054155;28;19917;-77
2023/12/04 02:54:45;;;;;;;;;;;;;;;8.25;68.77;100160.09;5053888;28;19951;-77
2023/12/04 02:57:11;;;;;;;;;;;;;;;8.29;68.74;100149.13;5053911;28;19913;-75
2023/12/04 02:59:36;;;;;;;;;;;;;;;8.34;69.19;100151.34;5053930;28;19912;-76
2023/12/04 03:02:01;;;;;;;;;;;;;;;8.34;68.74;100146.09;5054026;28;19916;-77
2023/12/04 03:04:28;;;;;;;;;;;;;;;8.31;68.36;100148.97;5053803;28;20348;-76
2023/12/04 03:06:53;;;;;;;;;;;;;;;8.28;68.07;100154.53;5053670;28;20012;-77
2023/12/04 03:09:18;;;;;;;;;;;;;;;8.25;68.84;100168.00;5053672;28;20003;-77
2023/12/04 03:11:44;;;;;;;;;;;;;;;8.24;68.35;100158.44;5053747;28;20374;-76
2023/12/04 03:14:09;;;;;;;;;;;;;;;8.28;68.87;100154.53;5053764;28;19913;-77
2023/12/04 03:16:34;;;;;;;;;;;;;;;8.27;68.71;100169.50;5053767;28;19936;-75
2023/12/04 03:19:00;;;;;;;;;;;;;;;8.27;69.00;100168.66;5053919;28;19912;-77
2023/12/04 03:21:25;;;;;;;;;;;;;;;8.30;68.91;100165.75;5053720;28;19952;-77
2023/12/04 03:23:51;;;;;;;;;;;;;;;8.27;68.53;100153.72;5053668;28;19996;-76
2023/12/04 03:26:16;;;;;;;;;;;;;;;8.24;68.39;100156.63;5053565;28;19961;-77
2023/12/04 03:28:41;;;;;;;;;;;;;;;8.18;67.68;100148.50;5053404;28;19920;-76
2023/12/04 03:31:07;;;;;;;;;;;;;;;8.15;68.37;100146.97;5053372;28;19919;-77
2023/12/04 03:33:32;;;;;;;;;;;;;;;8.11;68.34;100137.72;5053323;28;19919;-78
2023/12/04 03:35:59;;;;;;;;;;;;;;;7.93;67.25;100152.63;5053268;28;20352;-76
2023/12/04 03:38:24;;;;;;;;;;;;;;;7.92;67.31;100146.56;5052060;28;20363;-76
2023/12/04 03:40:49;;;;;;;;;;;;;;;7.93;67.80;100163.16;5053462;28;19919;-77
2023/12/04 03:43:14;;;;;;;;;;;;;;;7.88;67.14;100171.47;5052350;28;19913;-77
2023/12/04 03:45:40;;;;;;;;;;;;;;;7.96;68.48;100181.25;5053019;28;19913;-77
2023/12/04 03:48:05;;;;;;;;;;;;;;;7.91;67.84;100188.75;5052972;28;19913;-77
2023/12/04 03:50:30;;;;;;;;;;;;;;;7.91;67.83;100194.03;5053054;28;19919;-77
2023/12/04 03:52:56;;;;;;;;;;;;;;;7.91;67.73;100196.66;5052793;28;19923;-77
2023/12/04 03:55:21;;;;;;;;;;;;;;;7.95;67.69;100211.16;5051640;28;19913;-77
2023/12/04 03:57:47;;;;;;;;;;;;;;;7.85;67.03;100218.25;5052076;28;19916;-76
2023/12/04 04:00:12;;;;;;;;;;;;;;;7.74;67.05;100227.16;5052804;28;19913;-76
2023/12/04 04:02:39;;;;;;;;;;;;;;;7.77;66.61;100240.00;5052827;28;20415;-77
2023/12/04 04:05:04;;;;;;;;;;;;;;;7.79;66.91;100240.69;5052631;28;19916;-76
2023/12/04 04:07:30;;;;;;;;;;;;;;;7.73;66.56;100238.63;5052725;28;20305;-76
2023/12/04 04:09:55;;;;;;;;;;;;;;;7.72;66.65;100239.59;5052418;28;19912;-77
2023/12/04 04:12:20;;;;;;;;;;;;;;;7.74;66.71;100237.66;5051068;28;19924;-77
2023/12/04 04:14:46;;;;;;;;;;;;;;;7.77;67.37;100223.41;5052489;28;19949;-76
2023/12/04 04:17:11;;;;;;;;;;;;;;;7.70;66.16;100224.94;5052503;28;20441;-77
2023/12/04 04:19:36;;;;;;;;;;;;;;;7.71;67.12;100223.97;5052669;28;19979;-76
2023/12/04 04:22:02;;;;;;;;;;;;;;;7.69;67.30;100221.50;5052594;28;20368;-76
2023/12/04 04:24:28;;;;;;;;;;;;;;;7.65;67.14;100220.94;5052390;28;19915;-76
2023/12/04 04:26:54;;;;;;;;;;;;;;;7.65;67.24;100223.59;5052361;28;20050;-77
2023/12/04 04:29:19;;;;;;;;;;;;;;;7.64;68.03;100216.66;5050808;28;19931;-77
2023/12/04 04:31:44;;;;;;;;;;;;;;;7.66;67.80;100227.03;5052327;28;19917;-76
2023/12/04 04:34:09;;;;;;;;;;;;;;;7.50;65.94;100232.88;5052267;28;19924;-77
2023/12/04 04:36:35;;;;;;;;;;;;;;;7.52;67.31;100238.00;5052159;28;19966;-76
2023/12/04 04:39:01;;;;;;;;;;;;;;;7.51;66.88;100245.06;5052072;28;19943;-77
2023/12/04 04:41:26;;;;;;;;;;;;;;;7.44;66.03;100246.59;5051922;28;19913;-77
2023/12/04 04:43:51;;;;;;;;;;;;;;;7.30;66.78;100252.25;5052128;28;20050;-77
2023/12/04 04:46:17;;;;;;;;;;;;;;;7.32;67.21;100266.91;5052085;28;19920;-76
2023/12/04 04:48:42;;;;;;;;;;;;;;;7.35;66.51;100271.03;5052074;28;19920;-75
2023/12/04 04:51:07;;;;;;;;;;;;;;;7.39;67.35;100266.34;5051937;28;19913;-77
2023/12/04 04:53:33;;;;;;;;;;;;;;;7.39;66.85;100266.34;5050660;28;19912;-76
2023/12/04 04:55:58;;;;;;;;;;;;;;;7.39;66.61;100264.53;5051948;28;19919;-76
2023/12/04 04:58:24;;;;;;;;;;;;;;;7.39;66.45;100255.81;5051852;28;19923;-77
2023/12/04 05:00:49;;;;;;;;;;;;;;;7.29;66.14;100272.44;5051865;28;20004;-76
2023/12/04 05:03:14;;;;;;;;;;;;;;;7.30;67.45;100274.09;5051783;28;20278;-76
2023/12/04 05:05:40;;;;;;;;;;;;;;;7.29;66.15;100282.09;5051480;28;19956;-76
2023/12/04 05:08:05;;;;;;;;;;;;;;;7.31;66.88;100282.78;5050207;28;19913;-77
2023/12/04 05:10:31;;;;;;;;;;;;;;;7.29;66.90;100282.09;5049932;28;19917;-77
2023/12/04 05:12:56;;;;;;;;;;;;;;;7.28;66.50;100288.31;5050460;28;19959;-77
2023/12/04 05:15:21;;;;;;;;;;;;;;;7.26;66.31;100296.34;5051769;28;19912;-77
2023/12/04 05:17:47;;;;;;;;;;;;;;;7.22;66.91;100299.38;5051663;28;20305;-77
2023/12/04 05:20:12;;;;;;;;;;;;;;;7.13;66.26;100301.03;5051529;28;19995;-77
2023/12/04 05:22:37;;;;;;;;;;;;;;;7.07;66.47;100306.00;5051557;28;19999;-77
2023/12/04 05:25:03;;;;;;;;;;;;;;;7.09;66.36;100306.69;5051428;28;19917;-77
2023/12/04 05:27:28;;;;;;;;;;;;;;;7.09;67.00;100301.44;5051430;28;19913;-76
2023/12/04 05:29:54;;;;;;;;;;;;;;;7.10;66.50;100308.38;5051360;28;19924;-76
2023/12/04 05:32:19;;;;;;;;;;;;;;;7.06;66.39;100307.81;5051449;28;19973;-77
2023/12/04 05:34:44;;;;;;;;;;;;;;;7.10;66.89;100309.19;5051905;28;20305;-77
2023/12/04 05:37:09;;;;;;;;;;;;;;;7.09;65.83;100311.97;5052051;28;20366;-77
2023/12/04 05:39:35;;;;;;;;;;;;;;;7.09;66.82;100311.97;5052542;28;19920;-77
2023/12/04 05:42:00;;;;;;;;;;;;;;;7.08;66.62;100312.94;5051691;28;19912;-76
2023/12/04 05:44:25;;;;;;;;;;;;;;;7.09;66.56;100310.16;5049994;28;19917;-77
2023/12/04 05:46:51;;;;;;;;;;;;;;;7.07;66.09;100314.72;5051513;28;19919;-76
2023/12/04 05:49:17;;;;;;;;;;;;;;;7.05;66.87;100323.69;5050075;28;19913;-77
2023/12/04 05:51:42;;;;;;;;;;;;;;;6.97;65.95;100333.09;5051279;28;19917;-76
2023/12/04 05:54:08;;;;;;;;;;;;;;;6.89;66.14;100330.31;5051500;28;19995;-76
2023/12/04 05:56:34;;;;;;;;;;;;;;;6.89;66.85;100326.84;5051236;28;19917;-77
2023/12/04 05:58:59;;;;;;;;;;;;;;;6.92;67.26;100324.78;5049961;28;19974;-77
2023/12/04 06:01:24;;;;;;;;;;;;;;;6.92;66.86;100321.31;5051156;28;19999;-77
2023/12/04 06:03:50;;;;;;;;;;;;;;;6.91;66.33;100322.28;5068445;28;19920;-76
2023/12/04 06:06:15;;;;;;;;;;;;;;;6.95;67.11;100319.25;5077067;28;19920;-76
2023/12/04 06:08:40;;;;;;;;;;;;;;;6.94;66.22;100332.53;5071198;28;19962;-77
2023/12/04 06:11:06;;;;;;;;;;;;;;;6.95;66.32;100334.19;5072399;28;19987;-77
2023/12/04 06:13:31;;;;;;;;;;;;;;;6.95;66.62;100342.06;5071339;28;19924;-76
2023/12/04 06:15:57;;;;;;;;;;;;;;;6.96;66.58;100341.09;5072185;28;20404;-77
2023/12/04 06:18:22;;;;;;;;;;;;;;;7.02;66.43;100340.56;5089721;28;19922;-76
2023/12/04 06:20:47;;;;;;;;;;;;;;;7.04;66.65;100337.78;5089967;28;19919;-76
2023/12/04 06:23:13;;;;;;;;;;;;;;;7.01;66.38;100344.16;5094869;28;19912;-76
2023/12/04 06:25:38;;;;;;;;;;;;;;;7.05;65.88;100349.94;5093271;28;19935;-77
2023/12/04 06:28:04;;;;;;;;;;;;;;;7.04;66.21;100357.00;5091414;28;19928;-76
2023/12/04 06:30:29;;;;;;;;;;;;;;;7.02;65.54;100358.94;5092250;28;19943;-76
2023/12/04 06:32:55;;;;;;;;;;;;;;;7.00;65.84;100366.13;5094865;28;19966;-77
2023/12/04 06:35:20;;;;;;;;;;;;;;;6.97;65.33;100369.00;5094823;28;19912;-76
2023/12/04 06:37:47;;;;;;;;;;;;;;;6.95;65.80;100376.19;5081012;28;19909;-76
2023/12/04 06:40:12;;;;;;;;;;;;;;;6.95;66.28;100373.56;5057095;28;20287;-76
2023/12/04 06:42:38;;;;;;;;;;;;;;;6.98;66.11;100368.88;5079118;28;19923;-76
2023/12/04 06:45:03;;;;;;;;;;;;;;;7.00;66.19;100377.44;5094712;28;19923;-76
2023/12/04 06:47:30;;;;;;;;;;;;;;;7.03;66.28;100375.53;5094676;28;19920;-77
2023/12/04 06:49:56;;;;;;;;;;;;;;;7.01;66.22;100381.72;5094349;28;19941;-77
2023/12/04 06:52:21;;;;;;;;;;;;;;;7.10;66.77;100384.50;5092522;28;19916;-76
2023/12/04 06:54:46;;;;;;;;;;;;;;;7.10;66.66;100393.22;5094502;28;19924;-77
2023/12/04 06:57:14;;;;;;;;;;;;;;;7.11;65.92;100399.31;5094236;28;19919;-76
2023/12/04 06:59:40;;;;;;;;;;;;;;;7.11;65.49;100394.06;5094428;28;19998;-77
2023/12/04 07:02:05;;;;;;;;;;;;;;;7.15;66.11;100400.69;5088998;28;20015;-77
2023/12/04 07:04:31;;;;;;;;;;;;;;;7.15;65.48;100390.19;5072543;28;19920;-76
2023/12/04 07:06:57;;;;;;;;;;;;;;;7.21;65.50;100400.16;5073743;28;20020;-76
2023/12/04 07:09:23;;;;;;;;;;;;;;;7.24;65.44;100415.66;5073709;28;20385;-75
2023/12/04 07:11:48;;;;;;;;;;;;;;;7.21;65.32;100410.66;5073693;28;19927;-76
2023/12/04 07:14:14;;;;;;;;;;;;;;;7.24;65.48;100421.72;5071719;28;20396;-75
2023/12/04 07:16:40;;;;;;;;;;;;;;;7.29;65.48;100426.56;5069484;28;19924;-76
2023/12/04 07:19:06;;;;;;;;;;;;;;;7.26;64.84;100418.97;5073457;28;19947;-75
2023/12/04 07:21:31;;;;;;;;;;;;;;;7.22;63.99;100418.41;5073327;28;19912;-76
2023/12/04 07:23:56;;;;;;;;;;;;;;;7.20;64.63;100419.50;5073393;28;20282;-76
2023/12/04 07:26:22;;;;;;;;;;;;;;;7.16;64.22;100420.75;5070808;28;20451;-76
2023/12/04 07:28:47;;;;;;;;;;;;;;;7.18;65.09;100411.75;5061783;28;19969;-76
2023/12/04 07:31:12;;;;;;;;;;;;;;;7.17;62.36;100417.97;5058390;28;19970;-77
2023/12/04 07:33:38;;;;;;;;;;;;;;;7.24;62.42;100448.00;5052422;28;19974;-77
2023/12/04 07:36:03;;;;;;;;;;;;;;;7.26;63.26;100417.16;5060248;28;20062;-77
2023/12/04 07:38:28;;;;;;;;;;;;;;;7.30;64.13;100426.44;5086554;28;19923;-76
2023/12/04 07:40:54;;;;;;;;;;;;;;;7.30;62.10;100430.88;5093189;28;19916;-76
2023/12/04 07:43:19;;;;;;;;;;;;;;;7.09;63.83;100430.13;5077363;28;19916;-76
2023/12/04 07:45:44;;;;;;;;;;;;;;;7.05;61.94;100433.97;5073042;28;19913;-76
2023/12/04 07:48:10;;;;;;;;;;;;;;;7.08;62.07;100436.34;5073463;28;19912;-76
2023/12/04 07:50:37;;;;;;;;;;;;;;;7.17;63.94;100438.16;5076027;28;19928;-76
2023/12/04 07:53:02;;;;;;;;;;;;;;;7.16;62.61;100439.13;5085573;28;19924;-76
2023/12/04 07:55:29;;;;;;;;;;;;;;;7.24;62.33;100448.00;5074121;28;20033;-77
2023/12/04 07:57:56;;;;;;;;;;;;;;;7.36;62.48;100448.72;5076615;28;19946;-76
2023/12/04 08:00:22;;;;;;;;;;;;;;;7.40;63.06;100446.63;5054322;28;19912;-76
2023/12/04 08:02:48;;;;;;;;;;;;;;;7.44;61.12;100448.88;5091450;28;20393;-76
2023/12/04 08:05:13;;;;;;;;;;;;;;;7.45;61.36;100449.72;5092689;28;19912;-76
2023/12/04 08:07:38;;;;;;;;;;;;;;;7.36;60.12;100450.50;5092682;28;20385;-75
2023/12/04 08:10:04;;;;;;;;;;;;;;;7.31;59.35;100451.75;5087938;28;19920;-76
2023/12/04 08:12:30;;;;;;;;;;;;;;;7.36;61.60;100459.22;5070932;28;19921;-76
2023/12/04 08:14:55;;;;;;;;;;;;;;;7.30;60.92;100457.13;5059579;28;19924;-76
2023/12/04 08:17:20;;;;;;;;;;;;;;;7.31;61.51;100459.63;5052447;28;19973;-76
2023/12/04 08:19:45;;;;;;;;;;;;;;;7.28;61.56;100459.06;5062156;28;20410;-76
2023/12/04 08:22:11;;;;;;;;;;;;;;;7.26;61.45;100459.19;5064354;28;19916;-76
2023/12/04 08:24:36;;;;;;;;;;;;;;;7.26;61.08;100455.75;5072032;28;19913;-76
2023/12/04 08:27:02;;;;;;;;;;;;;;;7.28;60.39;100470.41;5071869;28;19912;-76
2023/12/04 08:29:27;;;;;;;;;;;;;;;7.22;58.93;100462.22;5071268;28;20293;-76
2023/12/04 08:31:52;;;;;;;;;;;;;;;7.26;61.19;100461.81;5070690;28;20037;-76
2023/12/04 08:34:18;;;;;;;;;;;;;;;7.24;60.83;100452.41;5078499;28;20002;-76
2023/12/04 08:36:43;;;;;;;;;;;;;;;7.25;60.24;100459.31;5092016;28;19920;-76
2023/12/04 08:39:08;;;;;;;;;;;;;;;7.26;60.16;100455.75;5090177;28;19951;-76
2023/12/04 08:41:34;;;;;;;;;;;;;;;7.27;61.68;100457.41;5088096;28;19923;-77
2023/12/04 08:43:59;;;;;;;;;;;;;;;7.25;60.93;100451.44;5072824;28;19947;-76
2023/12/04 08:46:24;;;;;;;;;;;;;;;7.23;59.86;100456.00;5081604;28;19985;-75
2023/12/04 08:48:50;;;;;;;;;;;;;;;7.24;61.13;100452.41;5070907;28;19920;-76
2023/12/04 08:51:16;;;;;;;;;;;;;;;7.19;59.98;100449.34;5064055;28;19923;-77
2023/12/04 08:53:41;;;;;;;;;;;;;;;7.24;61.18;100455.03;5061797;28;19982;-77
2023/12/04 08:56:08;;;;;;;;;;;;;;;7.22;59.59;100454.34;5084009;28;19916;-77
2023/12/04 08:58:33;;;;;;;;;;;;;;;7.27;60.58;100449.50;5082110;28;19923;-75
2023/12/04 09:00:58;;;;;;;;;;;;;;;7.29;60.98;100453.66;5082101;28;19999;-77
2023/12/04 09:03:24;;;;;;;;;;;;;;;7.27;60.52;100449.50;5083443;28;20018;-77
2023/12/04 09:05:51;;;;;;;;;;;;;;;7.20;59.94;100443.97;5061435;28;19921;-77
2023/12/04 09:08:17;;;;;;;;;;;;;;;7.18;59.53;100442.44;5067296;28;19973;-77
2023/12/04 09:10:42;;;;;;;;;;;;;;;7.20;61.49;100449.22;5074322;28;19909;-77
2023/12/04 09:13:08;;;;;;;;;;;;;;;7.22;60.86;100449.91;5065905;28;20419;-77
2023/12/04 09:15:33;;;;;;;;;;;;;;;7.28;61.77;100445.94;5060418;28;19996;-76
2023/12/04 09:17:59;;;;;;;;;;;;;;;7.24;59.47;100436.66;5080528;28;19916;-77
2023/12/04 09:20:25;;;;;;;;;;;;;;;7.25;59.81;100427.81;5059914;28;20087;-76
2023/12/04 09:22:50;;;;;;;;;;;;;;;7.20;59.38;100433.47;5058772;28;20000;-76
2023/12/04 09:25:16;;;;;;;;;;;;;;;7.11;59.87;100430.81;5062452;28;19917;-76
2023/12/04 09:27:41;;;;;;;;;;;;;;;7.13;60.75;100437.59;5062299;28;19999;-77
2023/12/04 09:30:07;;;;;;;;;;;;;;;7.16;60.88;100437.31;5061689;28;19924;-76
2023/12/04 09:32:32;;;;;;;;;;;;;;;7.18;59.98;100440.66;5061646;28;19928;-76
2023/12/04 09:34:57;;;;;;;;;;;;;;;7.12;61.46;100433.31;5071189;28;20374;-77
2023/12/04 09:37:24;;;;;;;;;;;;;;;7.12;61.82;100435.09;5074008;28;20345;-76
2023/12/04 09:39:49;;;;;;;;;;;;;;;7.12;61.37;100438.56;5090222;28;19943;-77
2023/12/04 09:42:18;;;;;;;;;;;;;;;7.13;61.35;100431.50;5091396;28;20450;-76
2023/12/04 09:44:44;;;;;;;;;;;;;;;7.10;60.28;100435.25;5089993;28;20254;-77
2023/12/04 09:47:10;;;;;;;;;;;;;;;7.04;61.53;100429.69;5091184;28;19912;-76
2023/12/04 09:49:35;;;;;;;;;;;;;;;6.94;60.89;100427.88;5089179;28;20290;-77
2023/12/04 09:52:02;;;;;;;;;;;;;;;6.96;61.15;100428.56;5070949;28;19916;-77
2023/12/04 09:54:29;;;;;;;;;;;;;;;6.96;61.35;100441.69;5068140;28;20317;-76
2023/12/04 09:56:55;;;;;;;;;;;;;;;7.05;61.47;100441.84;5067613;28;19937;-76
2023/12/04 09:59:22;;;;;;;;;;;;;;;7.06;58.81;100433.84;5060052;28;19916;-77
2023/12/04 10:01:48;;;;;;;;;;;;;;;7.10;61.56;100434.41;5075044;28;20007;-76
2023/12/04 10:04:13;;;;;;;;;;;;;;;7.15;61.42;100425.16;5074806;28;19951;-77
2023/12/04 10:06:39;;;;;;;;;;;;;;;7.20;60.63;100430.00;5074554;28;20454;-76
2023/12/04 10:09:04;;;;;;;;;;;;;;;7.22;61.85;100434.16;5074738;28;19916;-76
2023/12/04 10:11:30;;;;;;;;;;;;;;;7.16;60.92;100431.25;5063135;28;20309;-77
2023/12/04 10:13:55;;;;;;;;;;;;;;;7.17;60.69;100427.66;5077568;28;20416;-76
2023/12/04 10:16:36;;;;;;;;;;;;;;;7.18;61.25;100424.88;5091621;28;19917;-77
2023/12/04 10:19:18;;;;;;;;;;;;;;;7.22;61.62;100413.16;5077876;28;19917;-76
2023/12/04 10:21:48;;;;;;;;;;;;;;;7.11;61.10;100420.31;5090393;28;19916;-77
2023/12/04 10:24:27;;;;;;;;;;;;;;;7.07;61.33;100424.16;5092603;28;19917;-76
2023/12/04 10:26:52;;;;;;;;;;;;;;;7.00;61.40;100419.47;5073957;28;20290;-77
2023/12/04 10:29:18;;;;;;;;;;;;;;;7.01;61.62;100423.75;5075464;28;19923;-76
2023/12/04 10:31:43;;;;;;;;;;;;;;;7.13;62.31;100432.34;5094849;28;19916;-77
2023/12/04 10:34:09;;;;;;;;;;;;;;;7.15;62.24;100422.53;5094605;28;19920;-77
2023/12/04 10:36:35;;;;;;;;;;;;;;;7.24;62.29;100424.34;5092596;28;19911;-76
2023/12/04 10:39:04;;;;;;;;;;;;;;;7.32;61.79;100427.13;5087012;28;19916;-77
2023/12/04 10:41:30;;;;;;;;;;;;;;;7.38;61.96;100430.19;5070514;28;20458;-76
2023/12/04 10:43:56;;;;;;;;;;;;;;;6.66;61.61;100313.09;5071795;28;19917;-77
2023/12/04 10:46:21;;;;;;;;;;;;;;;7.42;61.98;100429.78;5089717;28;20014;-77
2023/12/04 10:48:47;;;;;;;;;;;;;;;7.46;62.23;100435.63;5063843;28;20342;-75
2023/12/04 10:51:13;;;;;;;;;;;;;;;7.45;61.46;100429.53;5063513;28;20062;-77
2023/12/04 10:53:42;;;;;;;;;;;;;;;7.38;62.59;100438.91;5068731;28;19960;-77
2023/12/04 10:56:10;;;;;;;;;;;;;;;7.43;61.83;100435.88;5062249;28;19916;-77
2023/12/04 10:58:38;;;;;;;;;;;;;;;7.49;62.61;100443.22;5065555;28;19916;-76
2023/12/04 11:01:08;;;;;;;;;;;;;;;7.50;62.53;100443.09;5060075;28;19920;-76
2023/12/04 11:03:40;;;;;;;;;;;;;;;7.54;61.92;100446.28;5066449;28;19916;-77
2023/12/04 11:06:07;;;;;;;;;;;;;;;7.60;62.30;100441.31;5069578;28;20328;-77
2023/12/04 11:08:33;;;;;;;;;;;;;;;7.60;62.09;100433.41;5053165;28;19997;-76
2023/12/04 11:11:02;;;;;;;;;;;;;;;7.63;62.42;100438.41;5066518;28;20435;-75
2023/12/04 11:13:30;;;;;;;;;;;;;;;7.59;61.61;100447.53;5071706;28;19924;-77
2023/12/04 11:16:06;;;;;;;;;;;;;;;7.55;62.36;100446.13;5075566;28;19923;-77
2023/12/04 11:18:37;;;;;;;;;;;;;;;7.54;62.28;100441.03;5068442;28;20393;-77
2023/12/04 11:21:11;;;;;;;;;;;;;;;7.55;62.38;100445.31;5073515;28;19916;-77
2023/12/04 11:23:37;;;;;;;;;;;;;;;7.52;62.38;100449.03;5073422;28;20033;-78
2023/12/04 11:26:04;;;;;;;;;;;;;;;7.50;62.85;100445.72;5063342;28;20015;-77
2023/12/04 11:28:31;;;;;;;;;;;;;;;7.47;62.53;100442.53;5051915;28;19925;-77
2023/12/04 11:30:57;;;;;;;;;;;;;;;7.51;62.11;100436.88;5069636;28;20298;-77
2023/12/04 11:33:23;;;;;;;;;;;;;;;7.52;62.39;100435.91;5093196;28;19923;-78
2023/12/04 11:35:50;;;;;;;;;;;;;;;7.58;62.14;100438.00;5093329;28;19916;-78
2023/12/04 11:38:16;;;;;;;;;;;;;;;7.66;62.67;100437.31;5063310;28;20011;-78
2023/12/04 11:40:44;;;;;;;;;;;;;;;7.72;62.61;100436.75;5073079;28;19920;-78
2023/12/04 11:43:26;;;;;;;;;;;;;;;7.77;61.80;100437.16;5073325;28;19913;-77
2023/12/04 11:45:51;;;;;;;;;;;;;;;7.88;62.29;100438.81;5073486;28;19913;-77
2023/12/04 11:48:16;;;;;;;;;;;;;;;7.87;61.42;100427.47;5069551;28;19920;-76
2023/12/04 11:50:45;;;;;;;;;;;;;;;7.92;61.73;100427.06;5072004;28;19920;-76
2023/12/04 11:53:13;;;;;;;;;;;;;;;7.90;59.79;100432.47;5076317;28;19967;-75
2023/12/04 11:55:40;;;;;;;;;;;;;;;7.89;60.64;100430.78;5070546;28;19920;-77
2023/12/04 11:58:08;;;;;;;;;;;;;;;7.88;60.47;100439.66;5058025;28;20005;-77
2023/12/04 12:00:35;;;;;;;;;;;;;;;7.95;61.63;100440.75;5085682;28;19916;-77
2023/12/04 12:03:02;;;;;;;;;;;;;;;7.93;60.57;100444.50;5090856;28;19912;-77
2023/12/04 12:05:28;;;;;;;;;;;;;;;7.94;61.04;100444.34;5068774;28;19936;-78
2023/12/04 12:07:54;;;;;;;;;;;;;;;7.99;61.02;100446.56;5063068;28;19916;-77
2023/12/04 12:10:19;;;;;;;;;;;;;;;7.99;60.83;100441.31;5069470;28;19956;-74
2023/12/04 12:12:45;;;;;;;;;;;;;;;7.99;60.95;100428.16;5067782;28;20437;-75
2023/12/04 12:15:13;;;;;;;;;;;;;;;7.98;59.29;100437.84;5051659;28;21317;-76
2023/12/04 12:17:39;;;;;;;;;;;;;;;7.98;60.51;100434.38;5066611;28;20294;-77
2023/12/04 12:20:11;;;;;;;;;;;;;;;7.91;60.09;100433.28;5074304;28;19920;-78
2023/12/04 12:22:37;;;;;;;;;;;;;;;7.94;60.34;100433.84;5092594;28;19919;-76
2023/12/04 12:25:06;;;;;;;;;;;;;;;7.97;59.99;100428.31;5058154;28;20306;-78
2023/12/04 12:27:32;;;;;;;;;;;;;;;8.03;59.78;100437.44;5068875;28;19977;-79
2023/12/04 12:29:57;;;;;;;;;;;;;;;8.03;60.57;100434.81;5072081;28;19913;-77
2023/12/04 12:32:23;;;;;;;;;;;;;;;7.96;60.23;100433.69;5068730;28;19966;-77
2023/12/04 12:34:48;;;;;;;;;;;;;;;7.94;59.98;100430.38;5076364;28;19947;-77
2023/12/04 12:37:14;;;;;;;;;;;;;;;7.89;59.53;100437.84;5083943;28;19973;-77
2023/12/04 12:39:40;;;;;;;;;;;;;;;7.87;59.75;100431.91;5064248;28;20023;-77